createdAt,value
2022-11-25T00:00:01.091Z,100625.50
2022-11-25T00:02:28.983Z,100635.28
2022-11-25T00:04:59.148Z,100635.03
2022-11-25T00:07:30.950Z,100643.53
2022-11-25T00:09:59.030Z,100630.00
2022-11-25T00:12:28.424Z,100623.91
2022-11-25T00:15:00.127Z,100631.47
2022-11-25T00:17:27.937Z,100626.97
2022-11-25T00:19:56.416Z,100627.75
2022-11-25T00:22:24.135Z,100628.97
2022-11-25T00:24:51.966Z,100619.28
2022-11-25T00:27:19.922Z,100616.41
2022-11-25T00:29:47.893Z,100604.19
2022-11-25T00:32:17.241Z,100607.47
2022-11-25T00:34:45.248Z,100611.25
2022-11-25T00:37:13.243Z,100624.53
2022-11-25T00:39:45.250Z,100624.78
2022-11-25T00:42:30.572Z,100623.19
2022-11-25T00:44:58.528Z,100607.03
2022-11-25T00:47:29.560Z,100619.97
2022-11-25T00:49:59.265Z,100614.44
2022-11-25T00:52:28.366Z,100613.28
2022-11-25T00:54:57.596Z,100624.03
2022-11-25T00:57:25.661Z,100606.50
2022-11-25T00:59:58.532Z,100599.22
2022-11-25T01:02:29.056Z,100600.72
2022-11-25T01:04:58.454Z,100596.44
2022-11-25T01:07:26.031Z,100608.88
2022-11-25T01:09:53.649Z,100616.91
2022-11-25T01:12:21.128Z,100619.13
2022-11-25T01:14:48.707Z,100624.56
2022-11-25T01:17:16.624Z,100622.41
2022-11-25T01:19:45.700Z,100628.09
2022-11-25T01:22:13.193Z,100625.56
2022-11-25T01:24:40.737Z,100631.09
2022-11-25T01:27:08.235Z,100636.91
2022-11-25T01:29:35.725Z,100627.25
2022-11-25T01:32:03.347Z,100621.94
2022-11-25T01:34:32.456Z,100616.69
2022-11-25T01:37:01.309Z,100626.94
2022-11-25T01:39:32.783Z,100626.66
2022-11-25T01:42:00.823Z,100632.00
2022-11-25T01:44:29.538Z,100630.69
2022-11-25T01:47:01.607Z,100625.47
2022-11-25T01:49:34.605Z,100628.91
2022-11-25T01:52:10.590Z,100618.25
2022-11-25T01:54:42.007Z,100626.72
2022-11-25T01:57:12.930Z,100630.03
2022-11-25T01:59:45.986Z,100626.00
2022-11-25T02:02:14.441Z,100621.28
2022-11-25T02:04:43.158Z,100628.81
2022-11-25T02:07:15.941Z,100617.69
2022-11-25T02:09:43.834Z,100619.91
2022-11-25T02:12:11.757Z,100620.75
2022-11-25T02:14:39.468Z,100621.47
2022-11-25T02:17:07.203Z,100620.03
2022-11-25T02:19:44.419Z,100622.00
2022-11-25T02:22:22.629Z,100615.38
2022-11-25T02:24:52.925Z,100618.78
2022-11-25T02:27:24.586Z,100619.69
2022-11-25T02:29:52.736Z,100617.34
2022-11-25T02:32:23.084Z,100623.13
2022-11-25T02:34:50.880Z,100615.44
2022-11-25T02:37:20.415Z,100617.50
2022-11-25T02:39:49.131Z,100609.41
2022-11-25T02:42:18.085Z,100602.63
2022-11-25T02:44:48.270Z,100612.00
2022-11-25T02:47:16.129Z,100608.66
2022-11-25T02:49:43.629Z,100611.25
2022-11-25T02:52:11.163Z,100612.75
2022-11-25T02:54:38.793Z,100603.88
2022-11-25T02:57:06.360Z,100605.28
2022-11-25T02:59:33.869Z,100600.44
2022-11-25T03:02:02.931Z,100599.22
2022-11-25T03:04:30.431Z,100601.78
2022-11-25T03:06:57.953Z,100603.28
2022-11-25T03:09:25.503Z,100599.41
2022-11-25T03:12:10.554Z,100601.44
2022-11-25T03:14:38.133Z,100610.16
2022-11-25T03:17:07.068Z,100615.16
2022-11-25T03:19:34.568Z,100615.88
2022-11-25T03:22:02.100Z,100611.38
2022-11-25T03:24:29.740Z,100613.59
2022-11-25T03:26:57.300Z,100610.00
2022-11-25T03:29:26.728Z,100609.31
2022-11-25T03:31:54.280Z,100609.72
2022-11-25T03:34:23.141Z,100616.63
2022-11-25T03:36:50.757Z,100621.84
2022-11-25T03:39:18.310Z,100620.94
2022-11-25T03:41:45.845Z,100606.50
2022-11-25T03:44:13.392Z,100611.69
2022-11-25T03:46:40.921Z,100606.84
2022-11-25T03:49:08.446Z,100610.25
2022-11-25T03:51:37.623Z,100603.81
2022-11-25T03:54:05.350Z,100595.66
2022-11-25T03:56:32.930Z,100596.25
2022-11-25T03:59:00.405Z,100584.88
2022-11-25T04:01:27.988Z,100596.66
2022-11-25T04:03:55.585Z,100595.66
2022-11-25T04:06:23.929Z,100595.41
2022-11-25T04:08:52.882Z,100610.31
2022-11-25T04:11:20.393Z,100610.63
2022-11-25T04:13:46.955Z,100599.97
2022-11-25T04:16:21.739Z,100596.25
2022-11-25T04:18:49.521Z,100597.09
2022-11-25T04:21:17.887Z,100594.81
2022-11-25T04:23:45.463Z,100604.53
2022-11-25T04:26:14.335Z,100606.63
2022-11-25T04:28:41.874Z,100606.34
2022-11-25T04:31:10.115Z,100608.13
2022-11-25T04:33:37.697Z,100608.44
2022-11-25T04:36:05.676Z,100606.50
2022-11-25T04:38:33.210Z,100607.88
2022-11-25T04:41:00.725Z,100612.69
2022-11-25T04:43:29.679Z,100602.22
2022-11-25T04:46:26.905Z,100599.00
2022-11-25T04:48:44.806Z,100596.53
2022-11-25T04:51:12.397Z,100600.78
2022-11-25T04:53:39.954Z,100611.28
2022-11-25T04:56:08.160Z,100597.63
2022-11-25T04:58:54.503Z,100591.88
2022-11-25T05:01:22.123Z,100581.66
2022-11-25T05:03:56.020Z,100578.31
2022-11-25T05:06:23.820Z,100596.25
2022-11-25T05:08:51.480Z,100602.03
2022-11-25T05:11:19.319Z,100595.16
2022-11-25T05:13:48.344Z,100604.00
2022-11-25T05:16:15.880Z,100605.13
2022-11-25T05:18:43.378Z,100596.66
2022-11-25T05:21:11.160Z,100603.94
2022-11-25T05:23:38.666Z,100600.69
2022-11-25T05:26:06.435Z,100602.63
2022-11-25T05:28:33.994Z,100604.66
2022-11-25T05:31:02.958Z,100600.44
2022-11-25T05:33:30.602Z,100590.78
2022-11-25T05:35:59.624Z,100594.94
2022-11-25T05:38:27.758Z,100592.56
2022-11-25T05:40:55.610Z,100583.34
2022-11-25T05:43:23.186Z,100582.75
2022-11-25T05:45:50.777Z,100582.06
2022-11-25T05:48:19.718Z,100591.63
2022-11-25T05:50:47.271Z,100596.22
2022-11-25T05:53:17.186Z,100600.50
2022-11-25T05:55:44.858Z,100596.50
2022-11-25T05:58:12.389Z,100612.41
2022-11-25T06:00:39.925Z,100615.16
2022-11-25T06:03:07.564Z,100609.91
2022-11-25T06:05:36.953Z,100607.13
2022-11-25T06:08:04.809Z,100624.16
2022-11-25T06:10:32.366Z,100620.69
2022-11-25T06:13:00.033Z,100625.41
2022-11-25T06:15:27.534Z,100627.34
2022-11-25T06:17:55.076Z,100625.84
2022-11-25T06:20:22.631Z,100641.75
2022-11-25T06:22:51.503Z,100639.53
2022-11-25T06:25:19.248Z,100632.50
2022-11-25T06:28:11.492Z,100638.31
2022-11-25T06:30:34.282Z,100627.63
2022-11-25T06:33:01.798Z,100627.50
2022-11-25T06:35:29.311Z,100642.19
2022-11-25T06:37:59.133Z,100629.59
2022-11-25T06:40:26.872Z,100643.69
2022-11-25T06:42:54.364Z,100650.34
2022-11-25T06:45:21.874Z,100655.31
2022-11-25T06:47:49.420Z,100649.25
2022-11-25T06:50:17.054Z,100662.81
2022-11-25T06:52:44.544Z,100671.13
2022-11-25T06:55:13.419Z,100674.03
2022-11-25T06:57:40.914Z,100672.81
2022-11-25T07:00:09.692Z,100667.28
2022-11-25T07:02:42.867Z,100665.03
2022-11-25T07:05:12.957Z,100666.28
2022-11-25T07:07:40.597Z,100664.63
2022-11-25T07:10:09.547Z,100671.84
2022-11-25T07:12:38.464Z,100676.69
2022-11-25T07:15:07.292Z,100666.97
2022-11-25T07:17:34.804Z,100674.47
2022-11-25T07:20:02.397Z,100663.22
2022-11-25T07:22:29.897Z,100675.28
2022-11-25T07:24:57.417Z,100669.16
2022-11-25T07:27:24.905Z,100671.38
2022-11-25T07:30:29.034Z,100675.84
2022-11-25T07:32:41.278Z,100675.97
2022-11-25T07:35:09.326Z,100680.25
2022-11-25T07:37:36.875Z,100683.88
2022-11-25T07:40:05.078Z,100694.28
2022-11-25T07:42:33.120Z,100694.41
2022-11-25T07:45:01.987Z,100696.34
2022-11-25T07:47:29.513Z,100691.91
2022-11-25T07:49:57.426Z,100690.53
2022-11-25T07:52:24.892Z,100700.25
2022-11-25T07:54:53.990Z,100698.72
2022-11-25T07:57:21.499Z,100694.94
2022-11-25T07:59:49.036Z,100697.72
2022-11-25T08:02:18.002Z,100702.00
2022-11-25T08:04:45.781Z,100698.81
2022-11-25T08:07:13.376Z,100706.84
2022-11-25T08:09:40.931Z,100706.97
2022-11-25T08:12:08.566Z,100709.31
2022-11-25T08:14:36.482Z,100709.72
2022-11-25T08:17:05.988Z,100707.63
2022-11-25T08:19:35.973Z,100707.03
2022-11-25T08:22:03.657Z,100711.59
2022-11-25T08:24:34.497Z,100707.84
2022-11-25T08:27:02.354Z,100719.78
2022-11-25T08:29:29.921Z,100709.75
2022-11-25T08:31:58.380Z,100709.59
2022-11-25T08:34:26.457Z,100714.00
2022-11-25T08:36:55.419Z,100715.06
2022-11-25T08:42:11.437Z,100709.19
2022-11-25T08:44:38.991Z,100715.94
2022-11-25T08:47:06.538Z,100724.78
2022-11-25T08:49:40.503Z,100722.25
2022-11-25T08:52:11.260Z,100718.75
2022-11-25T08:54:38.879Z,100715.44
2022-11-25T08:57:06.401Z,100720.13
2022-11-25T08:59:34.130Z,100721.38
2022-11-25T09:02:02.124Z,100721.28
2022-11-25T09:04:33.756Z,100725.72
2022-11-25T09:07:01.683Z,100739.09
2022-11-25T09:09:30.624Z,100749.81
2022-11-25T09:11:58.238Z,100743.75
2022-11-25T09:14:25.834Z,100745.50
2022-11-25T09:16:53.595Z,100749.56
2022-11-25T09:19:21.508Z,100748.19
2022-11-25T09:21:49.127Z,100757.34
2022-11-25T09:24:16.709Z,100756.34
2022-11-25T09:26:45.962Z,100758.75
2022-11-25T09:29:14.753Z,100758.16
2022-11-25T09:31:42.552Z,100764.88
2022-11-25T09:34:10.405Z,100762.63
2022-11-25T09:36:38.511Z,100775.41
2022-11-25T09:39:06.287Z,100765.72
2022-11-25T09:42:07.499Z,100764.72
2022-11-25T09:45:05.088Z,100773.09
2022-11-25T09:47:45.210Z,100789.78
2022-11-25T09:50:18.687Z,100790.91
2022-11-25T09:52:54.480Z,100783.81
2022-11-25T09:55:24.266Z,100785.25
2022-11-25T09:58:00.478Z,100788.75
2022-11-25T10:00:33.705Z,100770.69
2022-11-25T10:03:05.536Z,100784.22
2022-11-25T10:05:36.521Z,100783.44
2022-11-25T10:08:10.657Z,100786.91
2022-11-25T10:10:42.955Z,100801.91
2022-11-25T10:13:18.526Z,100800.69
2022-11-25T10:15:48.128Z,100801.25
2022-11-25T10:18:21.242Z,100797.09
2022-11-25T10:20:51.179Z,100793.84
2022-11-25T10:23:27.853Z,100797.22
2022-11-25T10:25:58.836Z,100804.47
2022-11-25T10:28:32.794Z,100802.69
2022-11-25T10:31:02.962Z,100794.19
2022-11-25T10:33:33.710Z,100799.94
2022-11-25T10:36:06.035Z,100807.69
2022-11-25T10:38:41.343Z,100804.72
2022-11-25T10:41:10.939Z,100795.78
2022-11-25T10:43:39.794Z,100797.47
2022-11-25T10:46:12.133Z,100813.09
2022-11-25T10:48:50.117Z,100815.16
2022-11-25T10:51:33.076Z,100807.84
2022-11-25T10:54:18.732Z,100809.50
2022-11-25T10:56:54.062Z,100815.78
2022-11-25T10:59:28.167Z,100820.94
2022-11-25T11:02:14.409Z,100813.34
2022-11-25T11:04:52.319Z,100815.00
2022-11-25T11:07:19.905Z,100813.03
2022-11-25T11:09:48.712Z,100819.63
2022-11-25T11:12:21.091Z,100807.41
2022-11-25T11:14:50.318Z,100813.34
2022-11-25T11:17:31.922Z,100824.59
2022-11-25T11:20:14.617Z,100833.59
2022-11-25T11:22:47.892Z,100838.75
2022-11-25T11:25:27.505Z,100832.16
2022-11-25T11:27:55.630Z,100838.66
2022-11-25T11:30:26.680Z,100838.22
2022-11-25T11:33:03.782Z,100833.69
2022-11-25T11:35:49.430Z,100831.19
2022-11-25T11:38:27.507Z,100837.84
2022-11-25T11:40:58.900Z,100832.44
2022-11-25T11:43:51.126Z,100844.72
2022-11-25T11:46:31.930Z,100836.59
2022-11-25T11:49:06.946Z,100844.41
2022-11-25T11:51:41.487Z,100845.22
2022-11-25T11:54:12.215Z,100844.22
2022-11-25T11:56:41.703Z,100838.44
2022-11-25T11:59:59.503Z,100835.28
2022-11-25T12:02:37.301Z,100848.47
2022-11-25T12:05:14.664Z,100852.66
2022-11-25T12:07:48.018Z,100848.84
2022-11-25T12:10:23.540Z,100857.50
2022-11-25T12:12:54.509Z,100862.66
2022-11-25T12:15:36.152Z,100873.28
2022-11-25T12:18:12.707Z,100867.78
2022-11-25T12:20:45.537Z,100871.31
2022-11-25T12:23:17.612Z,100878.59
2022-11-25T12:25:46.281Z,100874.59
2022-11-25T12:28:18.258Z,100868.63
2022-11-25T12:31:01.887Z,100869.47
2022-11-25T12:33:41.765Z,100869.47
2022-11-25T12:36:11.733Z,100881.72
2022-11-25T12:38:43.372Z,100878.59
2022-11-25T12:41:20.625Z,100875.28
2022-11-25T12:43:51.290Z,100875.28
2022-11-25T12:46:24.753Z,100883.72
2022-11-25T12:48:54.837Z,100886.88
2022-11-25T12:51:47.671Z,100887.69
2022-11-25T12:54:29.120Z,100897.50
2022-11-25T12:57:16.928Z,100898.97
2022-11-25T13:00:17.527Z,100899.50
2022-11-25T13:03:27.860Z,100907.28
2022-11-25T13:06:02.411Z,100910.75
2022-11-25T13:08:46.055Z,100912.75
2022-11-25T13:11:36.036Z,100914.91
2022-11-25T13:14:07.958Z,100913.41
2022-11-25T13:16:36.453Z,100912.41
2022-11-25T13:19:11.647Z,100922.03
2022-11-25T13:21:57.068Z,100917.38
2022-11-25T13:24:35.001Z,100921.34
2022-11-25T13:27:05.105Z,100919.91
2022-11-25T13:30:09.774Z,100935.00
2022-11-25T13:32:40.178Z,100936.84
2022-11-25T13:35:35.707Z,100942.78
2022-11-25T13:38:31.848Z,100935.63
2022-11-25T13:41:00.546Z,100929.78
2022-11-25T13:43:28.281Z,100934.59
2022-11-25T13:45:56.696Z,100937.59
2022-11-25T13:48:25.978Z,100946.72
2022-11-25T13:51:15.570Z,100949.38
2022-11-25T13:53:51.933Z,100954.72
2022-11-25T13:56:28.090Z,100956.22
2022-11-25T13:59:36.641Z,100970.81
2022-11-25T14:02:32.257Z,100967.97
2022-11-25T14:05:05.736Z,100974.63
2022-11-25T14:07:40.620Z,100972.63
2022-11-25T14:10:26.968Z,100976.28
2022-11-25T14:13:03.213Z,100980.09
2022-11-25T14:15:34.252Z,100984.44
2022-11-25T14:18:51.219Z,100984.44
2022-11-25T14:21:27.627Z,100987.78
2022-11-25T14:24:08.940Z,100985.13
2022-11-25T14:26:55.619Z,100983.09
2022-11-25T14:29:26.114Z,100988.41
2022-11-25T14:31:57.063Z,100989.41
2022-11-25T14:34:28.787Z,100988.75
2022-11-25T14:37:04.699Z,100996.06
2022-11-25T14:39:35.233Z,100991.88
2022-11-25T14:42:07.151Z,101005.00
2022-11-25T14:44:39.532Z,101004.72
2022-11-25T14:47:08.434Z,101011.03
2022-11-25T14:52:43.772Z,101019.38
2022-11-25T14:55:12.808Z,101019.34
2022-11-25T14:57:45.198Z,101017.19
2022-11-25T15:00:15.374Z,101019.53
2022-11-25T15:02:54.020Z,101034.47
2022-11-25T15:05:23.697Z,101034.00
2022-11-25T15:07:58.676Z,101031.00
2022-11-25T15:10:39.243Z,101029.34
2022-11-25T15:13:13.440Z,101034.66
2022-11-25T15:15:41.108Z,101032.81
2022-11-25T15:18:11.347Z,101028.31
2022-11-25T15:20:38.899Z,101035.28
2022-11-25T15:23:07.067Z,101041.94
2022-11-25T15:25:34.579Z,101043.75
2022-11-25T15:28:02.435Z,101039.72
2022-11-25T15:30:31.317Z,101057.69
2022-11-25T15:32:59.402Z,101050.19
2022-11-25T15:35:28.090Z,101049.34
2022-11-25T15:37:55.623Z,101059.13
2022-11-25T15:40:36.676Z,101062.25
2022-11-25T15:43:07.264Z,101065.03
2022-11-25T15:45:39.312Z,101065.50
2022-11-25T15:48:15.530Z,101073.31
2022-11-25T15:50:43.084Z,101078.31
2022-11-25T15:53:25.626Z,101078.94
2022-11-25T15:56:00.694Z,101079.09
2022-11-25T15:58:28.481Z,101075.25
2022-11-25T16:01:08.047Z,101074.56
2022-11-25T16:03:36.064Z,101077.28
2022-11-25T16:06:04.128Z,101089.03
2022-11-25T16:08:34.902Z,101088.06
2022-11-25T16:11:15.303Z,101093.34
2022-11-25T16:13:42.868Z,101099.16
2022-11-25T16:16:25.510Z,101103.81
2022-11-25T16:19:15.305Z,101102.81
2022-11-25T16:21:45.586Z,101107.59
2022-11-25T16:24:20.965Z,101108.13
2022-11-25T16:26:52.411Z,101101.78
2022-11-25T16:29:21.560Z,101112.09
2022-11-25T16:31:50.509Z,101112.09
2022-11-25T16:34:20.517Z,101118.69
2022-11-25T16:36:48.150Z,101128.50
2022-11-25T16:39:15.656Z,101129.28
2022-11-25T16:41:45.331Z,101126.53
2022-11-25T16:44:18.694Z,101127.38
2022-11-25T16:46:46.643Z,101132.38
2022-11-25T16:49:16.762Z,101137.47
2022-11-25T16:51:44.509Z,101138.66
2022-11-25T16:54:12.422Z,101144.97
2022-11-25T16:56:41.612Z,101143.09
2022-11-25T16:59:12.099Z,101149.75
2022-11-25T17:01:39.750Z,101153.09
2022-11-25T17:04:08.085Z,101154.94
2022-11-25T17:06:37.247Z,101160.03
2022-11-25T17:09:05.066Z,101169.53
2022-11-25T17:11:35.269Z,101174.19
2022-11-25T17:14:05.026Z,101174.50
2022-11-25T17:16:32.908Z,101177.44
2022-11-25T17:19:01.293Z,101173.78
2022-11-25T17:21:29.130Z,101184.53
2022-11-25T17:24:02.599Z,101189.22
2022-11-25T17:26:36.150Z,101189.72
2022-11-25T17:29:05.531Z,101194.84
2022-11-25T17:31:33.914Z,101192.97
2022-11-25T17:34:01.454Z,101191.38
2022-11-25T17:36:28.973Z,101194.69
2022-11-25T17:38:57.812Z,101195.06
2022-11-25T17:41:26.736Z,101201.78
2022-11-25T17:43:54.824Z,101203.88
2022-11-25T17:46:24.687Z,101203.31
2022-11-25T17:48:52.326Z,101208.59
2022-11-25T17:51:19.897Z,101216.50
2022-11-25T17:53:48.063Z,101226.44
2022-11-25T17:56:24.046Z,101234.78
2022-11-25T17:58:52.097Z,101231.91
2022-11-25T18:01:20.133Z,101244.84
2022-11-25T18:03:49.364Z,101240.28
2022-11-25T18:06:16.938Z,101251.06
2022-11-25T18:08:44.448Z,101253.28
2022-11-25T18:11:16.771Z,101261.16
2022-11-25T18:13:47.221Z,101257.44
2022-11-25T18:16:16.133Z,101277.25
2022-11-25T18:18:43.681Z,101275.50
2022-11-25T18:21:12.736Z,101288.72
2022-11-25T18:23:40.297Z,101283.81
2022-11-25T18:26:11.678Z,101294.13
2022-11-25T18:28:39.538Z,101283.66
2022-11-25T18:31:08.489Z,101285.25
2022-11-25T18:33:36.060Z,101286.44
2022-11-25T18:36:03.612Z,101295.09
2022-11-25T18:38:31.132Z,101284.50
2022-11-25T18:40:59.268Z,101296.75
2022-11-25T18:43:27.841Z,101291.84
2022-11-25T18:45:55.814Z,101296.91
2022-11-25T18:48:26.379Z,101304.84
2022-11-25T18:50:57.300Z,101306.50
2022-11-25T18:53:25.575Z,101311.75
2022-11-25T18:55:53.118Z,101315.38
2022-11-25T18:58:22.714Z,101324.56
2022-11-25T19:00:51.858Z,101324.84
2022-11-25T19:03:21.355Z,101335.19
2022-11-25T19:05:51.383Z,101343.38
2022-11-25T19:08:19.436Z,101347.09
2022-11-25T19:10:51.816Z,101338.84
2022-11-25T19:13:23.286Z,101345.44
2022-11-25T19:19:57.967Z,101361.69
2022-11-25T19:23:01.826Z,101365.44
2022-11-25T19:26:07.622Z,101372.56
2022-11-25T19:37:33.886Z,101379.50
2022-11-25T19:40:13.184Z,101386.44
2022-11-25T19:42:57.237Z,101397.06
2022-11-25T19:46:02.786Z,101410.31
2022-11-25T19:49:05.318Z,101417.03
2022-11-25T20:00:02.115Z,101432.41
2022-11-25T20:06:56.729Z,101442.94
2022-11-25T20:18:22.475Z,101448.56
2022-11-25T20:42:13.382Z,101490.09
2022-11-25T20:45:01.238Z,101497.78
2022-11-25T21:01:32.389Z,101524.16
2022-11-25T21:04:49.497Z,101516.78
2022-11-25T21:11:42.838Z,101533.50
2022-11-25T21:28:56.763Z,101540.47
2022-11-25T21:31:55.635Z,101549.81
2022-11-25T21:42:37.200Z,101555.09
2022-11-25T22:10:36.411Z,101586.97
2022-11-25T22:36:35.078Z,101613.97
2022-11-25T23:03:43.502Z,101651.00
2022-11-25T23:06:11.907Z,101647.34
2022-11-25T23:08:39.704Z,101659.41
2022-11-25T23:11:07.833Z,101661.25
2022-11-25T23:13:35.324Z,101656.53
2022-11-25T23:16:05.504Z,101661.75
2022-11-25T23:18:38.247Z,101662.28
2022-11-25T23:21:06.733Z,101667.56
2022-11-25T23:23:34.229Z,101666.38
2022-11-25T23:26:01.784Z,101662.91
2022-11-25T23:28:29.336Z,101678.22
2022-11-25T23:30:58.261Z,101677.16
2022-11-25T23:33:29.973Z,101674.06
2022-11-25T23:35:58.456Z,101679.06
2022-11-25T23:38:27.932Z,101683.75
2022-11-25T23:40:55.532Z,101678.59
2022-11-25T23:43:23.025Z,101683.13
2022-11-25T23:45:53.800Z,101689.47
2022-11-25T23:48:24.290Z,101687.34
2022-11-25T23:50:55.120Z,101688.31
2022-11-25T23:53:25.367Z,101691.41
2022-11-25T23:55:53.105Z,101702.34
2022-11-25T23:58:22.071Z,101699.69
